sensor_id;sensor_type;location;lat;lon;timestamp;temperature;humidity
9209;DHT22;4639;48.862;9.188;2022-12-10T00:00:21;3.30;99.90
9209;DHT22;4639;48.862;9.188;2022-12-10T00:02:47;3.20;99.90
9209;DHT22;4639;48.862;9.188;2022-12-10T00:05:13;3.20;99.90
9209;DHT22;4639;48.862;9.188;2022-12-10T00:07:38;3.30;99.90
9209;DHT22;4639;48.862;9.188;2022-12-10T00:10:04;3.10;99.90
9209;DHT22;4639;48.862;9.188;2022-12-10T00:12:30;3.10;99.90
9209;DHT22;4639;48.862;9.188;2022-12-10T00:14:55;3.20;99.90
9209;DHT22;4639;48.862;9.188;2022-12-10T00:17:21;3.10;99.90
9209;DHT22;4639;48.862;9.188;2022-12-10T00:19:46;3.10;99.90
9209;DHT22;4639;48.862;9.188;2022-12-10T00:22:12;3.10;99.90
9209;DHT22;4639;48.862;9.188;2022-12-10T00:24:37;3.10;99.90
9209;DHT22;4639;48.862;9.188;2022-12-10T00:27:03;3.10;99.90
9209;DHT22;4639;48.862;9.188;2022-12-10T00:29:28;3.20;99.90
9209;DHT22;4639;48.862;9.188;2022-12-10T00:31:54;3.20;99.90
9209;DHT22;4639;48.862;9.188;2022-12-10T00:34:20;3.20;99.90
9209;DHT22;4639;48.862;9.188;2022-12-10T00:36:47;3.20;99.90
9209;DHT22;4639;48.862;9.188;2022-12-10T00:39:15;3.20;99.90
9209;DHT22;4639;48.862;9.188;2022-12-10T00:41:41;3.10;99.90
9209;DHT22;4639;48.862;9.188;2022-12-10T00:44:07;3.10;99.90
9209;DHT22;4639;48.862;9.188;2022-12-10T00:46:33;3.10;99.90
9209;DHT22;4639;48.862;9.188;2022-12-10T00:48:59;3.00;99.90
9209;DHT22;4639;48.862;9.188;2022-12-10T00:51:26;3.10;99.90
9209;DHT22;4639;48.862;9.188;2022-12-10T00:53:54;3.20;99.90
9209;DHT22;4639;48.862;9.188;2022-12-10T00:56:22;3.20;99.90
9209;DHT22;4639;48.862;9.188;2022-12-10T00:58:48;3.20;99.90
9209;DHT22;4639;48.862;9.188;2022-12-10T01:01:30;3.10;99.90
9209;DHT22;4639;48.862;9.188;2022-12-10T01:04:07;3.10;99.90
9209;DHT22;4639;48.862;9.188;2022-12-10T01:06:36;3.10;99.90
9209;DHT22;4639;48.862;9.188;2022-12-10T01:09:05;3.00;99.90
9209;DHT22;4639;48.862;9.188;2022-12-10T01:11:34;3.00;99.90
9209;DHT22;4639;48.862;9.188;2022-12-10T01:14:00;3.00;99.90
9209;DHT22;4639;48.862;9.188;2022-12-10T01:16:26;3.00;99.90
9209;DHT22;4639;48.862;9.188;2022-12-10T01:18:56;3.10;99.90
9209;DHT22;4639;48.862;9.188;2022-12-10T01:21:23;3.10;99.90
9209;DHT22;4639;48.862;9.188;2022-12-10T01:23:50;3.10;99.90
9209;DHT22;4639;48.862;9.188;2022-12-10T01:26:22;3.00;99.90
9209;DHT22;4639;48.862;9.188;2022-12-10T01:28:48;2.90;99.90
9209;DHT22;4639;48.862;9.188;2022-12-10T01:31:20;2.80;99.90
9209;DHT22;4639;48.862;9.188;2022-12-10T01:33:46;2.80;99.90
9209;DHT22;4639;48.862;9.188;2022-12-10T01:36:16;2.90;99.90
9209;DHT22;4639;48.862;9.188;2022-12-10T01:38:43;2.90;99.90
9209;DHT22;4639;48.862;9.188;2022-12-10T01:41:32;3.00;99.90
9209;DHT22;4639;48.862;9.188;2022-12-10T01:46:31;3.00;99.90
9209;DHT22;4639;48.862;9.188;2022-12-10T01:48:59;3.00;99.90
9209;DHT22;4639;48.862;9.188;2022-12-10T01:51:28;3.00;99.90
9209;DHT22;4639;48.862;9.188;2022-12-10T01:53:54;3.00;99.90
9209;DHT22;4639;48.862;9.188;2022-12-10T01:56:21;3.10;99.90
9209;DHT22;4639;48.862;9.188;2022-12-10T01:58:51;3.10;99.90
9209;DHT22;4639;48.862;9.188;2022-12-10T02:06:53;3.20;99.90
9209;DHT22;4639;48.862;9.188;2022-12-10T02:12:39;3.10;99.90
9209;DHT22;4639;48.862;9.188;2022-12-10T02:15:27;3.00;99.90
9209;DHT22;4639;48.862;9.188;2022-12-10T02:18:04;3.00;99.90
9209;DHT22;4639;48.862;9.188;2022-12-10T02:20:35;3.10;99.90
9209;DHT22;4639;48.862;9.188;2022-12-10T02:23:11;3.00;99.90
9209;DHT22;4639;48.862;9.188;2022-12-10T02:25:48;3.10;99.90
9209;DHT22;4639;48.862;9.188;2022-12-10T02:30:43;3.10;99.90
9209;DHT22;4639;48.862;9.188;2022-12-10T02:33:10;3.00;99.90
9209;DHT22;4639;48.862;9.188;2022-12-10T02:35:37;3.00;99.90
9209;DHT22;4639;48.862;9.188;2022-12-10T02:38:15;3.00;99.90
9209;DHT22;4639;48.862;9.188;2022-12-10T02:40:48;3.00;99.90
9209;DHT22;4639;48.862;9.188;2022-12-10T02:43:15;3.10;99.90
9209;DHT22;4639;48.862;9.188;2022-12-10T02:45:42;3.00;99.90
9209;DHT22;4639;48.862;9.188;2022-12-10T02:48:10;3.00;99.90
9209;DHT22;4639;48.862;9.188;2022-12-10T02:50:36;2.90;99.90
9209;DHT22;4639;48.862;9.188;2022-12-10T02:53:02;2.90;99.90
9209;DHT22;4639;48.862;9.188;2022-12-10T02:55:32;2.90;99.90
9209;DHT22;4639;48.862;9.188;2022-12-10T03:03:52;3.00;99.90
9209;DHT22;4639;48.862;9.188;2022-12-10T03:06:32;3.00;99.90
9209;DHT22;4639;48.862;9.188;2022-12-10T03:09:09;3.00;99.90
9209;DHT22;4639;48.862;9.188;2022-12-10T03:11:37;3.00;99.90
9209;DHT22;4639;48.862;9.188;2022-12-10T03:16:47;2.90;99.90
9209;DHT22;4639;48.862;9.188;2022-12-10T03:19:17;2.80;99.90
9209;DHT22;4639;48.862;9.188;2022-12-10T03:21:45;2.80;99.90
9209;DHT22;4639;48.862;9.188;2022-12-10T03:24:12;2.80;99.90
9209;DHT22;4639;48.862;9.188;2022-12-10T03:26:39;2.80;99.90
9209;DHT22;4639;48.862;9.188;2022-12-10T03:29:21;2.80;99.90
9209;DHT22;4639;48.862;9.188;2022-12-10T03:31:48;2.90;99.90
9209;DHT22;4639;48.862;9.188;2022-12-10T03:34:15;2.90;99.90
9209;DHT22;4639;48.862;9.188;2022-12-10T03:36:41;2.80;99.90
9209;DHT22;4639;48.862;9.188;2022-12-10T03:39:07;2.90;99.90
9209;DHT22;4639;48.862;9.188;2022-12-10T03:41:33;2.80;99.90
9209;DHT22;4639;48.862;9.188;2022-12-10T03:43:59;2.80;99.90
9209;DHT22;4639;48.862;9.188;2022-12-10T03:46:27;2.60;99.90
9209;DHT22;4639;48.862;9.188;2022-12-10T03:48:54;2.50;99.90
9209;DHT22;4639;48.862;9.188;2022-12-10T03:51:20;2.50;99.90
9209;DHT22;4639;48.862;9.188;2022-12-10T03:53:46;2.60;99.90
9209;DHT22;4639;48.862;9.188;2022-12-10T03:56:11;2.60;99.90
9209;DHT22;4639;48.862;9.188;2022-12-10T03:58:37;2.60;99.90
9209;DHT22;4639;48.862;9.188;2022-12-10T04:01:05;2.70;99.90
9209;DHT22;4639;48.862;9.188;2022-12-10T04:03:35;2.70;99.90
9209;DHT22;4639;48.862;9.188;2022-12-10T04:06:03;2.60;99.90
9209;DHT22;4639;48.862;9.188;2022-12-10T04:08:29;2.40;99.90
9209;DHT22;4639;48.862;9.188;2022-12-10T04:11:00;2.40;99.90
9209;DHT22;4639;48.862;9.188;2022-12-10T04:13:26;2.40;99.90
9209;DHT22;4639;48.862;9.188;2022-12-10T04:16:10;2.40;99.90
9209;DHT22;4639;48.862;9.188;2022-12-10T04:21:21;2.20;99.90
9209;DHT22;4639;48.862;9.188;2022-12-10T04:24:06;2.30;99.90
9209;DHT22;4639;48.862;9.188;2022-12-10T04:26:50;2.30;99.90
9209;DHT22;4639;48.862;9.188;2022-12-10T04:29:23;2.20;99.90
9209;DHT22;4639;48.862;9.188;2022-12-10T04:31:49;2.30;99.90
9209;DHT22;4639;48.862;9.188;2022-12-10T04:34:15;2.30;99.90
9209;DHT22;4639;48.862;9.188;2022-12-10T04:36:41;2.30;99.90
9209;DHT22;4639;48.862;9.188;2022-12-10T04:39:07;2.30;99.90
9209;DHT22;4639;48.862;9.188;2022-12-10T04:41:32;2.30;99.90
9209;DHT22;4639;48.862;9.188;2022-12-10T04:43:58;2.20;99.90
9209;DHT22;4639;48.862;9.188;2022-12-10T04:46:23;2.10;99.90
9209;DHT22;4639;48.862;9.188;2022-12-10T04:48:49;2.00;99.90
9209;DHT22;4639;48.862;9.188;2022-12-10T04:51:14;2.10;99.90
9209;DHT22;4639;48.862;9.188;2022-12-10T04:53:40;2.20;99.90
9209;DHT22;4639;48.862;9.188;2022-12-10T04:56:06;2.20;99.90
9209;DHT22;4639;48.862;9.188;2022-12-10T04:58:32;2.10;99.90
9209;DHT22;4639;48.862;9.188;2022-12-10T05:01:03;2.10;99.90
9209;DHT22;4639;48.862;9.188;2022-12-10T05:03:28;2.00;99.90
9209;DHT22;4639;48.862;9.188;2022-12-10T05:05:54;2.00;99.90
9209;DHT22;4639;48.862;9.188;2022-12-10T05:08:20;2.00;99.90
9209;DHT22;4639;48.862;9.188;2022-12-10T05:10:45;2.00;99.90
9209;DHT22;4639;48.862;9.188;2022-12-10T05:13:11;2.10;99.90
9209;DHT22;4639;48.862;9.188;2022-12-10T05:15:39;2.10;99.90
9209;DHT22;4639;48.862;9.188;2022-12-10T05:18:05;2.00;99.90
9209;DHT22;4639;48.862;9.188;2022-12-10T05:20:30;2.10;99.90
9209;DHT22;4639;48.862;9.188;2022-12-10T05:22:56;2.10;99.90
9209;DHT22;4639;48.862;9.188;2022-12-10T05:25:40;2.20;99.90
9209;DHT22;4639;48.862;9.188;2022-12-10T05:28:21;2.30;99.90
9209;DHT22;4639;48.862;9.188;2022-12-10T05:30:48;2.40;99.90
9209;DHT22;4639;48.862;9.188;2022-12-10T05:33:13;2.40;99.90
9209;DHT22;4639;48.862;9.188;2022-12-10T05:35:39;2.40;99.90
9209;DHT22;4639;48.862;9.188;2022-12-10T05:38:05;2.40;99.90
9209;DHT22;4639;48.862;9.188;2022-12-10T05:40:37;2.40;99.90
9209;DHT22;4639;48.862;9.188;2022-12-10T05:43:02;2.30;99.90
9209;DHT22;4639;48.862;9.188;2022-12-10T05:45:28;2.20;99.90
9209;DHT22;4639;48.862;9.188;2022-12-10T05:47:53;2.30;99.90
9209;DHT22;4639;48.862;9.188;2022-12-10T05:50:19;2.20;99.90
9209;DHT22;4639;48.862;9.188;2022-12-10T05:52:45;2.10;99.90
9209;DHT22;4639;48.862;9.188;2022-12-10T05:55:10;2.20;99.90
9209;DHT22;4639;48.862;9.188;2022-12-10T05:57:36;2.20;99.90
9209;DHT22;4639;48.862;9.188;2022-12-10T06:00:04;2.20;99.90
9209;DHT22;4639;48.862;9.188;2022-12-10T06:02:32;2.20;99.90
9209;DHT22;4639;48.862;9.188;2022-12-10T06:04:58;2.20;99.90
9209;DHT22;4639;48.862;9.188;2022-12-10T06:07:23;2.10;99.90
9209;DHT22;4639;48.862;9.188;2022-12-10T06:09:49;2.10;99.90
9209;DHT22;4639;48.862;9.188;2022-12-10T06:12:14;2.10;99.90
9209;DHT22;4639;48.862;9.188;2022-12-10T06:14:40;2.00;99.90
9209;DHT22;4639;48.862;9.188;2022-12-10T06:17:05;2.10;99.90
9209;DHT22;4639;48.862;9.188;2022-12-10T06:19:31;2.10;99.90
9209;DHT22;4639;48.862;9.188;2022-12-10T06:21:57;2.00;99.90
9209;DHT22;4639;48.862;9.188;2022-12-10T06:24:24;2.00;99.90
9209;DHT22;4639;48.862;9.188;2022-12-10T06:26:49;2.10;99.90
9209;DHT22;4639;48.862;9.188;2022-12-10T06:29:15;2.10;99.90
9209;DHT22;4639;48.862;9.188;2022-12-10T06:31:40;2.10;99.90
9209;DHT22;4639;48.862;9.188;2022-12-10T06:34:06;2.20;99.90
9209;DHT22;4639;48.862;9.188;2022-12-10T06:36:32;2.20;99.90
9209;DHT22;4639;48.862;9.188;2022-12-10T06:38:57;2.30;99.90
9209;DHT22;4639;48.862;9.188;2022-12-10T06:41:23;2.30;99.90
9209;DHT22;4639;48.862;9.188;2022-12-10T06:43:49;2.20;99.90
9209;DHT22;4639;48.862;9.188;2022-12-10T06:46:17;2.20;99.90
9209;DHT22;4639;48.862;9.188;2022-12-10T06:48:43;2.30;99.90
9209;DHT22;4639;48.862;9.188;2022-12-10T06:51:10;2.30;99.90
9209;DHT22;4639;48.862;9.188;2022-12-10T06:53:38;2.30;99.90
9209;DHT22;4639;48.862;9.188;2022-12-10T06:56:05;2.20;99.90
9209;DHT22;4639;48.862;9.188;2022-12-10T06:58:32;2.20;99.90
9209;DHT22;4639;48.862;9.188;2022-12-10T07:01:13;2.20;99.90
9209;DHT22;4639;48.862;9.188;2022-12-10T07:03:39;2.20;99.90
9209;DHT22;4639;48.862;9.188;2022-12-10T07:06:06;2.20;99.90
9209;DHT22;4639;48.862;9.188;2022-12-10T07:08:33;2.10;99.90
9209;DHT22;4639;48.862;9.188;2022-12-10T07:10:59;2.30;99.90
9209;DHT22;4639;48.862;9.188;2022-12-10T07:13:24;2.20;99.90
9209;DHT22;4639;48.862;9.188;2022-12-10T07:15:50;2.30;99.90
9209;DHT22;4639;48.862;9.188;2022-12-10T07:18:16;2.30;99.90
9209;DHT22;4639;48.862;9.188;2022-12-10T07:20:41;2.30;99.90
9209;DHT22;4639;48.862;9.188;2022-12-10T07:23:07;2.30;99.90
9209;DHT22;4639;48.862;9.188;2022-12-10T07:25:33;2.30;99.90
9209;DHT22;4639;48.862;9.188;2022-12-10T07:27:58;2.40;99.90
9209;DHT22;4639;48.862;9.188;2022-12-10T07:30:24;2.40;99.90
9209;DHT22;4639;48.862;9.188;2022-12-10T07:32:50;2.40;99.90
9209;DHT22;4639;48.862;9.188;2022-12-10T07:35:15;2.40;99.90
9209;DHT22;4639;48.862;9.188;2022-12-10T07:37:41;2.40;99.90
9209;DHT22;4639;48.862;9.188;2022-12-10T07:40:07;2.50;99.90
9209;DHT22;4639;48.862;9.188;2022-12-10T07:42:33;2.50;99.90
9209;DHT22;4639;48.862;9.188;2022-12-10T07:44:58;2.30;99.90
9209;DHT22;4639;48.862;9.188;2022-12-10T07:47:24;2.20;99.90
9209;DHT22;4639;48.862;9.188;2022-12-10T07:49:50;2.10;99.90
9209;DHT22;4639;48.862;9.188;2022-12-10T07:52:15;2.00;99.90
9209;DHT22;4639;48.862;9.188;2022-12-10T07:54:41;1.90;99.90
9209;DHT22;4639;48.862;9.188;2022-12-10T07:57:06;2.00;99.90
9209;DHT22;4639;48.862;9.188;2022-12-10T07:59:32;2.00;99.90
9209;DHT22;4639;48.862;9.188;2022-12-10T08:01:57;1.90;99.90
9209;DHT22;4639;48.862;9.188;2022-12-10T08:04:23;2.00;99.90
9209;DHT22;4639;48.862;9.188;2022-12-10T08:06:49;2.10;99.90
9209;DHT22;4639;48.862;9.188;2022-12-10T08:09:14;2.20;99.90
9209;DHT22;4639;48.862;9.188;2022-12-10T08:11:40;2.30;99.90
9209;DHT22;4639;48.862;9.188;2022-12-10T08:14:06;2.30;99.90
9209;DHT22;4639;48.862;9.188;2022-12-10T08:16:31;2.30;99.90
9209;DHT22;4639;48.862;9.188;2022-12-10T08:18:59;2.10;99.90
9209;DHT22;4639;48.862;9.188;2022-12-10T08:21:26;2.00;99.90
9209;DHT22;4639;48.862;9.188;2022-12-10T08:23:53;2.00;99.90
9209;DHT22;4639;48.862;9.188;2022-12-10T08:26:22;2.10;99.90
9209;DHT22;4639;48.862;9.188;2022-12-10T08:28:48;2.10;99.90
9209;DHT22;4639;48.862;9.188;2022-12-10T08:31:16;2.10;99.90
9209;DHT22;4639;48.862;9.188;2022-12-10T08:33:42;2.10;99.90
9209;DHT22;4639;48.862;9.188;2022-12-10T08:36:10;2.20;99.90
9209;DHT22;4639;48.862;9.188;2022-12-10T08:38:36;2.30;99.90
9209;DHT22;4639;48.862;9.188;2022-12-10T08:41:12;2.30;99.90
9209;DHT22;4639;48.862;9.188;2022-12-10T08:43:39;2.30;99.90
9209;DHT22;4639;48.862;9.188;2022-12-10T08:46:05;2.30;99.90
9209;DHT22;4639;48.862;9.188;2022-12-10T08:48:31;2.30;99.90
9209;DHT22;4639;48.862;9.188;2022-12-10T08:50:57;2.50;99.90
9209;DHT22;4639;48.862;9.188;2022-12-10T08:53:22;2.50;99.90
9209;DHT22;4639;48.862;9.188;2022-12-10T08:55:52;2.40;99.90
9209;DHT22;4639;48.862;9.188;2022-12-10T08:58:18;2.50;99.90
9209;DHT22;4639;48.862;9.188;2022-12-10T09:00:43;2.40;99.90
9209;DHT22;4639;48.862;9.188;2022-12-10T09:03:09;2.40;99.90
9209;DHT22;4639;48.862;9.188;2022-12-10T09:05:35;2.50;99.90
9209;DHT22;4639;48.862;9.188;2022-12-10T09:08:01;2.60;99.90
9209;DHT22;4639;48.862;9.188;2022-12-10T09:10:27;2.60;99.90
9209;DHT22;4639;48.862;9.188;2022-12-10T09:12:52;2.70;99.90
9209;DHT22;4639;48.862;9.188;2022-12-10T09:15:18;2.80;99.90
9209;DHT22;4639;48.862;9.188;2022-12-10T09:17:43;2.70;99.90
9209;DHT22;4639;48.862;9.188;2022-12-10T09:20:09;2.60;99.90
9209;DHT22;4639;48.862;9.188;2022-12-10T09:22:35;2.60;99.90
9209;DHT22;4639;48.862;9.188;2022-12-10T09:25:03;2.70;99.90
9209;DHT22;4639;48.862;9.188;2022-12-10T09:27:30;2.80;99.90
9209;DHT22;4639;48.862;9.188;2022-12-10T09:29:55;2.80;99.90
9209;DHT22;4639;48.862;9.188;2022-12-10T09:32:21;2.90;99.90
9209;DHT22;4639;48.862;9.188;2022-12-10T09:34:46;2.90;99.90
9209;DHT22;4639;48.862;9.188;2022-12-10T09:37:15;3.00;99.90
9209;DHT22;4639;48.862;9.188;2022-12-10T09:39:41;3.00;99.90
9209;DHT22;4639;48.862;9.188;2022-12-10T09:42:38;3.10;99.90
9209;DHT22;4639;48.862;9.188;2022-12-10T09:45:48;3.20;99.90
9209;DHT22;4639;48.862;9.188;2022-12-10T09:48:16;3.10;99.90
9209;DHT22;4639;48.862;9.188;2022-12-10T09:51:18;2.90;99.90
9209;DHT22;4639;48.862;9.188;2022-12-10T09:53:48;3.00;99.90
9209;DHT22;4639;48.862;9.188;2022-12-10T09:56:21;3.00;99.90
9209;DHT22;4639;48.862;9.188;2022-12-10T09:58:48;3.00;99.90
9209;DHT22;4639;48.862;9.188;2022-12-10T10:01:16;3.00;99.90
9209;DHT22;4639;48.862;9.188;2022-12-10T10:03:43;3.00;99.90
9209;DHT22;4639;48.862;9.188;2022-12-10T10:06:13;3.00;99.90
9209;DHT22;4639;48.862;9.188;2022-12-10T10:08:45;2.90;99.90
9209;DHT22;4639;48.862;9.188;2022-12-10T10:11:16;2.80;99.90
9209;DHT22;4639;48.862;9.188;2022-12-10T10:16:23;2.90;99.90
9209;DHT22;4639;48.862;9.188;2022-12-10T10:19:06;3.00;99.90
9209;DHT22;4639;48.862;9.188;2022-12-10T10:21:40;3.00;99.90
9209;DHT22;4639;48.862;9.188;2022-12-10T10:24:10;2.90;99.90
9209;DHT22;4639;48.862;9.188;2022-12-10T10:26:36;2.90;99.90
9209;DHT22;4639;48.862;9.188;2022-12-10T10:29:06;2.90;99.90
9209;DHT22;4639;48.862;9.188;2022-12-10T10:31:34;3.00;99.90
9209;DHT22;4639;48.862;9.188;2022-12-10T10:34:04;3.10;99.90
9209;DHT22;4639;48.862;9.188;2022-12-10T10:36:36;3.10;99.90
9209;DHT22;4639;48.862;9.188;2022-12-10T10:39:11;3.20;99.90
9209;DHT22;4639;48.862;9.188;2022-12-10T10:41:47;3.20;99.90
9209;DHT22;4639;48.862;9.188;2022-12-10T10:44:22;3.30;99.90
9209;DHT22;4639;48.862;9.188;2022-12-10T10:46:54;3.40;99.90
9209;DHT22;4639;48.862;9.188;2022-12-10T10:49:28;3.40;99.90
9209;DHT22;4639;48.862;9.188;2022-12-10T10:52:21;3.40;99.90
9209;DHT22;4639;48.862;9.188;2022-12-10T10:54:47;3.30;99.90
9209;DHT22;4639;48.862;9.188;2022-12-10T10:59:56;3.30;99.90
9209;DHT22;4639;48.862;9.188;2022-12-10T11:02:35;3.30;99.90
9209;DHT22;4639;48.862;9.188;2022-12-10T11:05:07;3.30;99.90
9209;DHT22;4639;48.862;9.188;2022-12-10T11:07:36;3.20;99.90
9209;DHT22;4639;48.862;9.188;2022-12-10T11:10:14;3.20;99.90
9209;DHT22;4639;48.862;9.188;2022-12-10T11:12:41;3.20;99.90
9209;DHT22;4639;48.862;9.188;2022-12-10T11:17:51;3.30;99.90
9209;DHT22;4639;48.862;9.188;2022-12-10T11:20:19;3.30;99.90
9209;DHT22;4639;48.862;9.188;2022-12-10T11:23:10;3.50;99.90
9209;DHT22;4639;48.862;9.188;2022-12-10T11:34:19;3.60;99.90
9209;DHT22;4639;48.862;9.188;2022-12-10T11:37:25;3.50;99.90
9209;DHT22;4639;48.862;9.188;2022-12-10T11:47:45;3.70;99.90
9209;DHT22;4639;48.862;9.188;2022-12-10T12:01:20;3.40;99.90
9209;DHT22;4639;48.862;9.188;2022-12-10T12:13:09;3.60;99.90
9209;DHT22;4639;48.862;9.188;2022-12-10T12:18:21;3.60;99.90
9209;DHT22;4639;48.862;9.188;2022-12-10T12:20:53;3.60;99.90
9209;DHT22;4639;48.862;9.188;2022-12-10T12:26:13;3.70;99.90
9209;DHT22;4639;48.862;9.188;2022-12-10T12:28:51;3.70;99.90
9209;DHT22;4639;48.862;9.188;2022-12-10T12:31:21;3.70;99.90
9209;DHT22;4639;48.862;9.188;2022-12-10T12:34:01;3.80;99.90
9209;DHT22;4639;48.862;9.188;2022-12-10T12:36:31;3.80;99.90
9209;DHT22;4639;48.862;9.188;2022-12-10T12:41:50;3.80;99.90
9209;DHT22;4639;48.862;9.188;2022-12-10T12:44:33;3.90;99.90
9209;DHT22;4639;48.862;9.188;2022-12-10T12:47:16;3.70;99.90
9209;DHT22;4639;48.862;9.188;2022-12-10T12:49:44;3.70;99.90
9209;DHT22;4639;48.862;9.188;2022-12-10T12:54:56;3.80;99.90
9209;DHT22;4639;48.862;9.188;2022-12-10T12:58:11;3.80;99.90
9209;DHT22;4639;48.862;9.188;2022-12-10T13:00:41;3.70;99.90
9209;DHT22;4639;48.862;9.188;2022-12-10T13:05:39;3.70;99.90
9209;DHT22;4639;48.862;9.188;2022-12-10T13:10:51;3.70;99.90
9209;DHT22;4639;48.862;9.188;2022-12-10T13:13:33;3.80;99.90
9209;DHT22;4639;48.862;9.188;2022-12-10T13:17:01;3.80;99.90
9209;DHT22;4639;48.862;9.188;2022-12-10T13:24:18;3.80;99.90
9209;DHT22;4639;48.862;9.188;2022-12-10T13:27:17;3.60;99.90
9209;DHT22;4639;48.862;9.188;2022-12-10T13:30:36;3.50;99.90
9209;DHT22;4639;48.862;9.188;2022-12-10T13:32:46;3.30;99.90
9209;DHT22;4639;48.862;9.188;2022-12-10T13:43:25;2.90;99.90
9209;DHT22;4639;48.862;9.188;2022-12-10T13:48:55;2.90;99.90
9209;DHT22;4639;48.862;9.188;2022-12-10T13:54:18;2.60;99.90
9209;DHT22;4639;48.862;9.188;2022-12-10T14:07:27;2.30;99.90
9209;DHT22;4639;48.862;9.188;2022-12-10T14:09:55;2.20;99.90
9209;DHT22;4639;48.862;9.188;2022-12-10T14:12:34;2.20;99.90
9209;DHT22;4639;48.862;9.188;2022-12-10T14:15:08;2.20;99.90
9209;DHT22;4639;48.862;9.188;2022-12-10T14:17:42;2.20;99.90
9209;DHT22;4639;48.862;9.188;2022-12-10T14:20:15;2.20;99.90
9209;DHT22;4639;48.862;9.188;2022-12-10T14:22:49;2.10;99.90
9209;DHT22;4639;48.862;9.188;2022-12-10T14:25:19;2.10;99.90
9209;DHT22;4639;48.862;9.188;2022-12-10T14:27:50;2.10;99.90
9209;DHT22;4639;48.862;9.188;2022-12-10T14:30:20;2.20;99.90
9209;DHT22;4639;48.862;9.188;2022-12-10T14:32:47;2.20;99.90
9209;DHT22;4639;48.862;9.188;2022-12-10T14:35:17;2.20;99.90
9209;DHT22;4639;48.862;9.188;2022-12-10T14:37:45;2.20;99.90
9209;DHT22;4639;48.862;9.188;2022-12-10T14:40:31;2.30;99.90
9209;DHT22;4639;48.862;9.188;2022-12-10T14:43:04;2.30;99.90
9209;DHT22;4639;48.862;9.188;2022-12-10T14:45:57;2.30;99.90
9209;DHT22;4639;48.862;9.188;2022-12-10T14:48:23;2.20;99.90
9209;DHT22;4639;48.862;9.188;2022-12-10T14:50:49;2.10;99.90
9209;DHT22;4639;48.862;9.188;2022-12-10T14:53:22;2.10;99.90
9209;DHT22;4639;48.862;9.188;2022-12-10T14:55:50;2.20;99.90
9209;DHT22;4639;48.862;9.188;2022-12-10T14:58:39;2.20;99.90
9209;DHT22;4639;48.862;9.188;2022-12-10T15:01:09;2.30;99.90
9209;DHT22;4639;48.862;9.188;2022-12-10T15:03:43;2.30;99.90
9209;DHT22;4639;48.862;9.188;2022-12-10T15:06:15;2.40;99.90
9209;DHT22;4639;48.862;9.188;2022-12-10T15:08:42;2.40;99.90
9209;DHT22;4639;48.862;9.188;2022-12-10T15:11:16;2.40;99.90
9209;DHT22;4639;48.862;9.188;2022-12-10T15:13:46;2.30;99.90
9209;DHT22;4639;48.862;9.188;2022-12-10T15:16:27;2.30;99.90
9209;DHT22;4639;48.862;9.188;2022-12-10T15:18:54;2.30;99.90
9209;DHT22;4639;48.862;9.188;2022-12-10T15:21:23;2.30;99.90
9209;DHT22;4639;48.862;9.188;2022-12-10T15:24:07;2.30;99.90
9209;DHT22;4639;48.862;9.188;2022-12-10T15:26:34;2.30;99.90
9209;DHT22;4639;48.862;9.188;2022-12-10T15:29:35;2.30;99.90
9209;DHT22;4639;48.862;9.188;2022-12-10T15:32:05;2.20;99.90
9209;DHT22;4639;48.862;9.188;2022-12-10T15:34:41;2.20;99.90
9209;DHT22;4639;48.862;9.188;2022-12-10T15:37:16;2.20;99.90
9209;DHT22;4639;48.862;9.188;2022-12-10T15:39:47;2.20;99.90
9209;DHT22;4639;48.862;9.188;2022-12-10T15:45:00;2.20;99.90
9209;DHT22;4639;48.862;9.188;2022-12-10T15:47:27;2.20;99.90
9209;DHT22;4639;48.862;9.188;2022-12-10T15:49:55;2.20;99.90
9209;DHT22;4639;48.862;9.188;2022-12-10T15:52:26;2.20;99.90
9209;DHT22;4639;48.862;9.188;2022-12-10T15:54:54;2.20;99.90
9209;DHT22;4639;48.862;9.188;2022-12-10T15:57:23;2.20;99.90
9209;DHT22;4639;48.862;9.188;2022-12-10T15:59:52;2.20;99.90
9209;DHT22;4639;48.862;9.188;2022-12-10T16:05:00;2.20;99.90
9209;DHT22;4639;48.862;9.188;2022-12-10T16:07:26;2.20;99.90
9209;DHT22;4639;48.862;9.188;2022-12-10T16:09:52;2.10;99.90
9209;DHT22;4639;48.862;9.188;2022-12-10T16:12:18;2.00;99.90
9209;DHT22;4639;48.862;9.188;2022-12-10T16:14:52;2.00;99.90
9209;DHT22;4639;48.862;9.188;2022-12-10T16:17:22;2.00;99.90
9209;DHT22;4639;48.862;9.188;2022-12-10T16:19:48;2.00;99.90
9209;DHT22;4639;48.862;9.188;2022-12-10T16:22:13;1.90;99.90
9209;DHT22;4639;48.862;9.188;2022-12-10T16:24:39;1.80;99.90
9209;DHT22;4639;48.862;9.188;2022-12-10T16:27:13;1.60;99.90
9209;DHT22;4639;48.862;9.188;2022-12-10T16:29:39;1.70;99.90
9209;DHT22;4639;48.862;9.188;2022-12-10T16:32:05;1.80;99.90
9209;DHT22;4639;48.862;9.188;2022-12-10T16:34:31;1.70;99.90
9209;DHT22;4639;48.862;9.188;2022-12-10T16:36:56;1.60;99.90
9209;DHT22;4639;48.862;9.188;2022-12-10T16:39:22;1.60;99.90
9209;DHT22;4639;48.862;9.188;2022-12-10T16:41:52;1.70;99.90
9209;DHT22;4639;48.862;9.188;2022-12-10T16:44:18;1.60;99.90
9209;DHT22;4639;48.862;9.188;2022-12-10T16:46:43;1.50;99.90
9209;DHT22;4639;48.862;9.188;2022-12-10T16:49:09;1.50;99.90
9209;DHT22;4639;48.862;9.188;2022-12-10T16:51:35;1.50;99.90
9209;DHT22;4639;48.862;9.188;2022-12-10T16:54:01;1.60;99.90
9209;DHT22;4639;48.862;9.188;2022-12-10T16:56:27;1.50;99.90
9209;DHT22;4639;48.862;9.188;2022-12-10T16:58:53;1.50;99.90
9209;DHT22;4639;48.862;9.188;2022-12-10T17:01:20;1.50;99.90
9209;DHT22;4639;48.862;9.188;2022-12-10T17:03:46;1.60;99.90
9209;DHT22;4639;48.862;9.188;2022-12-10T17:06:12;1.50;99.90
9209;DHT22;4639;48.862;9.188;2022-12-10T17:08:39;1.50;99.90
9209;DHT22;4639;48.862;9.188;2022-12-10T17:11:16;1.50;99.90
9209;DHT22;4639;48.862;9.188;2022-12-10T17:14:03;1.50;99.90
9209;DHT22;4639;48.862;9.188;2022-12-10T17:16:30;1.50;99.90
9209;DHT22;4639;48.862;9.188;2022-12-10T17:18:56;1.50;99.90
9209;DHT22;4639;48.862;9.188;2022-12-10T17:21:21;1.50;99.90
9209;DHT22;4639;48.862;9.188;2022-12-10T17:23:48;1.50;99.90
9209;DHT22;4639;48.862;9.188;2022-12-10T17:26:26;1.40;99.90
9209;DHT22;4639;48.862;9.188;2022-12-10T17:28:52;1.50;99.90
9209;DHT22;4639;48.862;9.188;2022-12-10T17:31:19;1.50;99.90
9209;DHT22;4639;48.862;9.188;2022-12-10T17:33:45;1.50;99.90
9209;DHT22;4639;48.862;9.188;2022-12-10T17:36:10;1.50;99.90
9209;DHT22;4639;48.862;9.188;2022-12-10T17:38:36;1.40;99.90
9209;DHT22;4639;48.862;9.188;2022-12-10T17:41:02;1.50;99.90
9209;DHT22;4639;48.862;9.188;2022-12-10T17:43:27;1.30;99.90
9209;DHT22;4639;48.862;9.188;2022-12-10T17:45:55;1.30;99.90
9209;DHT22;4639;48.862;9.188;2022-12-10T17:48:22;1.30;99.90
9209;DHT22;4639;48.862;9.188;2022-12-10T17:50:47;1.30;99.90
9209;DHT22;4639;48.862;9.188;2022-12-10T17:53:14;1.20;99.90
9209;DHT22;4639;48.862;9.188;2022-12-10T17:55:44;1.20;99.90
9209;DHT22;4639;48.862;9.188;2022-12-10T17:58:11;1.10;99.90
9209;DHT22;4639;48.862;9.188;2022-12-10T18:00:38;1.10;99.90
9209;DHT22;4639;48.862;9.188;2022-12-10T18:03:04;1.10;99.90
9209;DHT22;4639;48.862;9.188;2022-12-10T18:05:30;1.00;99.90
9209;DHT22;4639;48.862;9.188;2022-12-10T18:07:56;1.10;99.90
9209;DHT22;4639;48.862;9.188;2022-12-10T18:10:27;1.10;99.90
9209;DHT22;4639;48.862;9.188;2022-12-10T18:12:55;1.10;99.90
9209;DHT22;4639;48.862;9.188;2022-12-10T18:15:21;1.10;99.90
9209;DHT22;4639;48.862;9.188;2022-12-10T18:17:48;1.10;99.90
9209;DHT22;4639;48.862;9.188;2022-12-10T18:20:26;1.10;99.90
9209;DHT22;4639;48.862;9.188;2022-12-10T18:22:52;1.10;99.90
9209;DHT22;4639;48.862;9.188;2022-12-10T18:25:18;1.10;99.90
9209;DHT22;4639;48.862;9.188;2022-12-10T18:27:45;1.20;99.90
9209;DHT22;4639;48.862;9.188;2022-12-10T18:30:21;1.20;99.90
9209;DHT22;4639;48.862;9.188;2022-12-10T18:32:49;1.20;99.90